sensor_id;sensor_type;location;lat;lon;timestamp;P1;durP1;ratioP1;P2;durP2;ratioP2
10987;SDS011;5547;42.672;23.230;2023-11-18T00:02:41;0.70;;;0.60;;
10987;SDS011;5547;42.672;23.230;2023-11-18T00:05:42;0.50;;;0.40;;
10987;SDS011;5547;42.672;23.230;2023-11-18T00:08:43;0.80;;;0.67;;
10987;SDS011;5547;42.672;23.230;2023-11-18T00:11:43;0.87;;;0.60;;
10987;SDS011;5547;42.672;23.230;2023-11-18T00:14:44;1.40;;;0.98;;
10987;SDS011;5547;42.672;23.230;2023-11-18T00:17:45;2.40;;;1.00;;
10987;SDS011;5547;42.672;23.230;2023-11-18T00:20:45;0.70;;;0.67;;
10987;SDS011;5547;42.672;23.230;2023-11-18T00:23:46;1.00;;;0.70;;
10987;SDS011;5547;42.672;23.230;2023-11-18T00:26:48;1.10;;;0.90;;
10987;SDS011;5547;42.672;23.230;2023-11-18T00:29:48;0.77;;;0.70;;
10987;SDS011;5547;42.672;23.230;2023-11-18T00:32:49;1.35;;;0.85;;
10987;SDS011;5547;42.672;23.230;2023-11-18T00:35:50;0.70;;;0.70;;
10987;SDS011;5547;42.672;23.230;2023-11-18T00:38:50;0.85;;;0.80;;
10987;SDS011;5547;42.672;23.230;2023-11-18T00:41:50;1.30;;;0.70;;
10987;SDS011;5547;42.672;23.230;2023-11-18T00:44:51;1.87;;;1.23;;
10987;SDS011;5547;42.672;23.230;2023-11-18T00:47:51;1.20;;;1.10;;
10987;SDS011;5547;42.672;23.230;2023-11-18T00:50:52;1.27;;;1.13;;
10987;SDS011;5547;42.672;23.230;2023-11-18T00:53:52;1.10;;;0.90;;
10987;SDS011;5547;42.672;23.230;2023-11-18T00:56:54;1.10;;;1.00;;
10987;SDS011;5547;42.672;23.230;2023-11-18T00:59:54;1.30;;;1.20;;
10987;SDS011;5547;42.672;23.230;2023-11-18T01:02:54;1.33;;;1.20;;
10987;SDS011;5547;42.672;23.230;2023-11-18T01:05:55;1.33;;;1.10;;
10987;SDS011;5547;42.672;23.230;2023-11-18T01:08:55;1.70;;;1.30;;
10987;SDS011;5547;42.672;23.230;2023-11-18T01:11:56;1.57;;;1.40;;
10987;SDS011;5547;42.672;23.230;2023-11-18T01:14:56;1.30;;;1.13;;
10987;SDS011;5547;42.672;23.230;2023-11-18T01:17:56;1.70;;;1.40;;
10987;SDS011;5547;42.672;23.230;2023-11-18T01:20:57;1.77;;;1.40;;
10987;SDS011;5547;42.672;23.230;2023-11-18T01:23:58;2.13;;;1.40;;
10987;SDS011;5547;42.672;23.230;2023-11-18T01:26:59;1.97;;;1.33;;
10987;SDS011;5547;42.672;23.230;2023-11-18T01:29:59;2.00;;;1.80;;
10987;SDS011;5547;42.672;23.230;2023-11-18T01:33:00;2.05;;;1.55;;
10987;SDS011;5547;42.672;23.230;2023-11-18T01:36:00;1.90;;;1.47;;
10987;SDS011;5547;42.672;23.230;2023-11-18T01:39:01;1.65;;;1.52;;
10987;SDS011;5547;42.672;23.230;2023-11-18T01:42:02;1.90;;;1.80;;
10987;SDS011;5547;42.672;23.230;2023-11-18T01:45:03;1.70;;;1.60;;
10987;SDS011;5547;42.672;23.230;2023-11-18T01:48:04;1.40;;;1.30;;
10987;SDS011;5547;42.672;23.230;2023-11-18T01:51:06;1.43;;;1.23;;
10987;SDS011;5547;42.672;23.230;2023-11-18T01:54:07;1.58;;;1.48;;
10987;SDS011;5547;42.672;23.230;2023-11-18T01:57:15;1.27;;;1.17;;
10987;SDS011;5547;42.672;23.230;2023-11-18T02:00:16;1.67;;;1.48;;
10987;SDS011;5547;42.672;23.230;2023-11-18T02:03:17;1.83;;;1.60;;
10987;SDS011;5547;42.672;23.230;2023-11-18T02:06:18;1.40;;;1.30;;
10987;SDS011;5547;42.672;23.230;2023-11-18T02:09:19;1.70;;;1.47;;
10987;SDS011;5547;42.672;23.230;2023-11-18T02:12:35;1.92;;;1.73;;
10987;SDS011;5547;42.672;23.230;2023-11-18T02:16:07;2.05;;;1.88;;
10987;SDS011;5547;42.672;23.230;2023-11-18T02:19:19;2.20;;;1.98;;
10987;SDS011;5547;42.672;23.230;2023-11-18T02:22:21;3.00;;;1.98;;
10987;SDS011;5547;42.672;23.230;2023-11-18T02:25:23;1.95;;;1.83;;
10987;SDS011;5547;42.672;23.230;2023-11-18T02:28:27;2.10;;;1.90;;
10987;SDS011;5547;42.672;23.230;2023-11-18T02:31:31;2.13;;;1.93;;
10987;SDS011;5547;42.672;23.230;2023-11-18T02:34:34;2.10;;;1.90;;
10987;SDS011;5547;42.672;23.230;2023-11-18T02:37:39;2.40;;;2.07;;
10987;SDS011;5547;42.672;23.230;2023-11-18T02:40:43;2.80;;;2.50;;
10987;SDS011;5547;42.672;23.230;2023-11-18T02:43:45;2.28;;;1.95;;
10987;SDS011;5547;42.672;23.230;2023-11-18T02:46:47;3.22;;;2.80;;
10987;SDS011;5547;42.672;23.230;2023-11-18T02:49:53;2.60;;;2.22;;
10987;SDS011;5547;42.672;23.230;2023-11-18T02:52:54;2.75;;;2.55;;
10987;SDS011;5547;42.672;23.230;2023-11-18T02:55:55;2.50;;;2.30;;
10987;SDS011;5547;42.672;23.230;2023-11-18T02:59:02;2.40;;;2.05;;
10987;SDS011;5547;42.672;23.230;2023-11-18T03:02:05;2.85;;;2.50;;
10987;SDS011;5547;42.672;23.230;2023-11-18T03:05:09;2.50;;;2.30;;
10987;SDS011;5547;42.672;23.230;2023-11-18T03:08:11;2.90;;;2.58;;
10987;SDS011;5547;42.672;23.230;2023-11-18T03:11:12;2.60;;;2.20;;
10987;SDS011;5547;42.672;23.230;2023-11-18T03:14:12;3.35;;;2.53;;
10987;SDS011;5547;42.672;23.230;2023-11-18T03:17:13;3.00;;;2.63;;
10987;SDS011;5547;42.672;23.230;2023-11-18T03:20:16;3.00;;;2.57;;
10987;SDS011;5547;42.672;23.230;2023-11-18T03:23:17;2.70;;;2.50;;
10987;SDS011;5547;42.672;23.230;2023-11-18T03:26:19;2.87;;;2.67;;
10987;SDS011;5547;42.672;23.230;2023-11-18T03:29:19;3.03;;;2.65;;
10987;SDS011;5547;42.672;23.230;2023-11-18T03:32:20;2.77;;;2.47;;
10987;SDS011;5547;42.672;23.230;2023-11-18T03:35:20;2.70;;;2.50;;
10987;SDS011;5547;42.672;23.230;2023-11-18T03:38:20;3.13;;;2.70;;
10987;SDS011;5547;42.672;23.230;2023-11-18T03:41:21;3.10;;;2.67;;
10987;SDS011;5547;42.672;23.230;2023-11-18T03:44:23;2.97;;;2.67;;
10987;SDS011;5547;42.672;23.230;2023-11-18T03:47:24;3.20;;;2.90;;
10987;SDS011;5547;42.672;23.230;2023-11-18T03:50:24;2.97;;;2.67;;
10987;SDS011;5547;42.672;23.230;2023-11-18T03:53:25;3.10;;;2.80;;
10987;SDS011;5547;42.672;23.230;2023-11-18T03:56:25;3.20;;;2.90;;
10987;SDS011;5547;42.672;23.230;2023-11-18T03:59:26;3.50;;;3.10;;
10987;SDS011;5547;42.672;23.230;2023-11-18T04:02:27;3.13;;;2.80;;
10987;SDS011;5547;42.672;23.230;2023-11-18T04:05:28;3.33;;;3.03;;
10987;SDS011;5547;42.672;23.230;2023-11-18T04:08:29;5.40;;;4.30;;
10987;SDS011;5547;42.672;23.230;2023-11-18T04:11:29;3.47;;;3.17;;
10987;SDS011;5547;42.672;23.230;2023-11-18T04:14:30;3.20;;;2.90;;
10987;SDS011;5547;42.672;23.230;2023-11-18T04:17:30;4.40;;;3.40;;
10987;SDS011;5547;42.672;23.230;2023-11-18T04:20:31;3.28;;;2.97;;
10987;SDS011;5547;42.672;23.230;2023-11-18T04:23:32;3.33;;;3.03;;
10987;SDS011;5547;42.672;23.230;2023-11-18T04:26:34;3.38;;;2.75;;
10987;SDS011;5547;42.672;23.230;2023-11-18T04:29:35;3.43;;;3.07;;
10987;SDS011;5547;42.672;23.230;2023-11-18T04:32:36;3.42;;;3.10;;
10987;SDS011;5547;42.672;23.230;2023-11-18T04:35:36;3.30;;;2.97;;
10987;SDS011;5547;42.672;23.230;2023-11-18T04:38:37;4.97;;;4.07;;
10987;SDS011;5547;42.672;23.230;2023-11-18T04:41:37;3.40;;;3.03;;
10987;SDS011;5547;42.672;23.230;2023-11-18T04:44:38;3.30;;;3.00;;
10987;SDS011;5547;42.672;23.230;2023-11-18T04:47:38;3.20;;;2.90;;
10987;SDS011;5547;42.672;23.230;2023-11-18T04:50:40;2.83;;;2.53;;
10987;SDS011;5547;42.672;23.230;2023-11-18T04:53:41;2.83;;;2.53;;
10987;SDS011;5547;42.672;23.230;2023-11-18T04:56:42;3.10;;;2.53;;
10987;SDS011;5547;42.672;23.230;2023-11-18T04:59:42;2.72;;;2.42;;
10987;SDS011;5547;42.672;23.230;2023-11-18T05:02:45;2.85;;;2.58;;
10987;SDS011;5547;42.672;23.230;2023-11-18T05:05:48;2.40;;;2.20;;
10987;SDS011;5547;42.672;23.230;2023-11-18T05:08:49;2.33;;;2.13;;
10987;SDS011;5547;42.672;23.230;2023-11-18T05:11:50;2.40;;;2.20;;
10987;SDS011;5547;42.672;23.230;2023-11-18T05:14:50;2.67;;;2.40;;
10987;SDS011;5547;42.672;23.230;2023-11-18T05:17:54;2.30;;;2.03;;
10987;SDS011;5547;42.672;23.230;2023-11-18T05:20:54;1.88;;;1.73;;
10987;SDS011;5547;42.672;23.230;2023-11-18T05:23:54;2.60;;;2.07;;
10987;SDS011;5547;42.672;23.230;2023-11-18T05:26:55;2.80;;;2.30;;
10987;SDS011;5547;42.672;23.230;2023-11-18T05:29:55;2.30;;;2.10;;
10987;SDS011;5547;42.672;23.230;2023-11-18T05:32:59;2.28;;;1.88;;
10987;SDS011;5547;42.672;23.230;2023-11-18T05:36:04;2.08;;;1.88;;
10987;SDS011;5547;42.672;23.230;2023-11-18T05:39:05;2.13;;;1.75;;
10987;SDS011;5547;42.672;23.230;2023-11-18T05:42:07;2.60;;;2.40;;
10987;SDS011;5547;42.672;23.230;2023-11-18T05:45:10;3.93;;;2.97;;
10987;SDS011;5547;42.672;23.230;2023-11-18T05:48:17;2.45;;;2.17;;
10987;SDS011;5547;42.672;23.230;2023-11-18T05:51:21;1.77;;;1.67;;
10987;SDS011;5547;42.672;23.230;2023-11-18T05:54:23;1.80;;;1.40;;
10987;SDS011;5547;42.672;23.230;2023-11-18T05:57:23;1.60;;;1.50;;
10987;SDS011;5547;42.672;23.230;2023-11-18T06:00:27;1.63;;;1.50;;
10987;SDS011;5547;42.672;23.230;2023-11-18T06:03:30;1.65;;;1.40;;
10987;SDS011;5547;42.672;23.230;2023-11-18T06:06:31;2.67;;;1.40;;
10987;SDS011;5547;42.672;23.230;2023-11-18T06:09:32;1.33;;;1.23;;
10987;SDS011;5547;42.672;23.230;2023-11-18T06:12:32;1.67;;;1.40;;
10987;SDS011;5547;42.672;23.230;2023-11-18T06:15:33;1.83;;;1.37;;
10987;SDS011;5547;42.672;23.230;2023-11-18T06:18:35;2.55;;;1.67;;
10987;SDS011;5547;42.672;23.230;2023-11-18T06:21:37;1.90;;;1.30;;
10987;SDS011;5547;42.672;23.230;2023-11-18T06:24:38;2.27;;;1.50;;
10987;SDS011;5547;42.672;23.230;2023-11-18T06:27:39;3.78;;;1.70;;
10987;SDS011;5547;42.672;23.230;2023-11-18T06:30:39;1.63;;;1.20;;
10987;SDS011;5547;42.672;23.230;2023-11-18T06:33:42;1.40;;;1.00;;
10987;SDS011;5547;42.672;23.230;2023-11-18T06:36:43;1.87;;;1.03;;
10987;SDS011;5547;42.672;23.230;2023-11-18T06:39:43;1.20;;;1.00;;
10987;SDS011;5547;42.672;23.230;2023-11-18T06:42:48;1.40;;;1.10;;
10987;SDS011;5547;42.672;23.230;2023-11-18T06:45:49;1.30;;;0.90;;
10987;SDS011;5547;42.672;23.230;2023-11-18T06:48:49;1.77;;;1.30;;
10987;SDS011;5547;42.672;23.230;2023-11-18T06:51:54;2.40;;;1.27;;
10987;SDS011;5547;42.672;23.230;2023-11-18T06:54:54;1.17;;;0.77;;
10987;SDS011;5547;42.672;23.230;2023-11-18T06:57:54;1.47;;;0.93;;
10987;SDS011;5547;42.672;23.230;2023-11-18T07:00:56;1.10;;;0.80;;
10987;SDS011;5547;42.672;23.230;2023-11-18T07:03:56;0.90;;;0.73;;
10987;SDS011;5547;42.672;23.230;2023-11-18T07:06:57;1.92;;;1.10;;
10987;SDS011;5547;42.672;23.230;2023-11-18T07:09:57;0.90;;;0.80;;
10987;SDS011;5547;42.672;23.230;2023-11-18T07:12:58;0.80;;;0.80;;
10987;SDS011;5547;42.672;23.230;2023-11-18T07:15:59;0.90;;;0.80;;
10987;SDS011;5547;42.672;23.230;2023-11-18T07:19:03;1.30;;;0.90;;
10987;SDS011;5547;42.672;23.230;2023-11-18T07:22:06;1.65;;;0.80;;
10987;SDS011;5547;42.672;23.230;2023-11-18T07:25:06;2.23;;;1.47;;
10987;SDS011;5547;42.672;23.230;2023-11-18T07:28:09;1.30;;;0.95;;
10987;SDS011;5547;42.672;23.230;2023-11-18T07:31:09;1.52;;;1.27;;
10987;SDS011;5547;42.672;23.230;2023-11-18T07:34:09;1.50;;;1.00;;
10987;SDS011;5547;42.672;23.230;2023-11-18T07:37:10;1.10;;;0.90;;
10987;SDS011;5547;42.672;23.230;2023-11-18T07:40:12;1.40;;;1.30;;
10987;SDS011;5547;42.672;23.230;2023-11-18T07:43:15;2.03;;;1.37;;
10987;SDS011;5547;42.672;23.230;2023-11-18T07:46:15;1.15;;;1.00;;
10987;SDS011;5547;42.672;23.230;2023-11-18T07:49:16;1.30;;;1.20;;
10987;SDS011;5547;42.672;23.230;2023-11-18T07:52:16;1.50;;;1.15;;
10987;SDS011;5547;42.672;23.230;2023-11-18T07:55:17;1.93;;;1.10;;
10987;SDS011;5547;42.672;23.230;2023-11-18T07:58:18;1.73;;;1.10;;
10987;SDS011;5547;42.672;23.230;2023-11-18T08:01:20;3.20;;;1.60;;
10987;SDS011;5547;42.672;23.230;2023-11-18T08:04:23;1.38;;;1.27;;
10987;SDS011;5547;42.672;23.230;2023-11-18T08:07:25;1.15;;;1.02;;
10987;SDS011;5547;42.672;23.230;2023-11-18T08:10:26;1.30;;;0.97;;
10987;SDS011;5547;42.672;23.230;2023-11-18T08:13:26;1.00;;;0.90;;
10987;SDS011;5547;42.672;23.230;2023-11-18T08:16:26;1.25;;;1.00;;
10987;SDS011;5547;42.672;23.230;2023-11-18T08:19:27;1.00;;;0.80;;
10987;SDS011;5547;42.672;23.230;2023-11-18T08:22:28;0.80;;;0.80;;
10987;SDS011;5547;42.672;23.230;2023-11-18T08:25:30;0.80;;;0.80;;
10987;SDS011;5547;42.672;23.230;2023-11-18T08:28:33;0.80;;;0.80;;
10987;SDS011;5547;42.672;23.230;2023-11-18T08:31:34;1.20;;;0.60;;
10987;SDS011;5547;42.672;23.230;2023-11-18T08:34:35;1.02;;;0.93;;
10987;SDS011;5547;42.672;23.230;2023-11-18T08:37:37;1.58;;;0.80;;
10987;SDS011;5547;42.672;23.230;2023-11-18T08:40:38;1.63;;;1.10;;
10987;SDS011;5547;42.672;23.230;2023-11-18T08:43:38;1.10;;;0.80;;
10987;SDS011;5547;42.672;23.230;2023-11-18T08:46:41;1.00;;;0.80;;
10987;SDS011;5547;42.672;23.230;2023-11-18T08:49:45;1.30;;;0.90;;
10987;SDS011;5547;42.672;23.230;2023-11-18T08:52:46;1.17;;;1.08;;
10987;SDS011;5547;42.672;23.230;2023-11-18T08:55:47;1.02;;;0.90;;
10987;SDS011;5547;42.672;23.230;2023-11-18T08:58:54;1.20;;;1.10;;
10987;SDS011;5547;42.672;23.230;2023-11-18T09:01:54;1.40;;;0.80;;
10987;SDS011;5547;42.672;23.230;2023-11-18T09:04:59;2.00;;;1.40;;
10987;SDS011;5547;42.672;23.230;2023-11-18T09:07:59;2.20;;;1.87;;
10987;SDS011;5547;42.672;23.230;2023-11-18T09:11:02;1.75;;;1.48;;
10987;SDS011;5547;42.672;23.230;2023-11-18T09:14:07;1.67;;;1.23;;
10987;SDS011;5547;42.672;23.230;2023-11-18T09:17:08;1.10;;;0.90;;
10987;SDS011;5547;42.672;23.230;2023-11-18T09:20:09;1.77;;;1.67;;
10987;SDS011;5547;42.672;23.230;2023-11-18T09:23:11;1.23;;;1.13;;
10987;SDS011;5547;42.672;23.230;2023-11-18T09:26:11;1.97;;;1.30;;
10987;SDS011;5547;42.672;23.230;2023-11-18T09:29:12;1.37;;;1.20;;
10987;SDS011;5547;42.672;23.230;2023-11-18T09:32:13;1.38;;;1.15;;
10987;SDS011;5547;42.672;23.230;2023-11-18T09:35:14;1.70;;;1.13;;
10987;SDS011;5547;42.672;23.230;2023-11-18T09:38:15;1.43;;;1.13;;
10987;SDS011;5547;42.672;23.230;2023-11-18T09:41:16;1.13;;;1.00;;
10987;SDS011;5547;42.672;23.230;2023-11-18T09:44:17;1.45;;;1.00;;
10987;SDS011;5547;42.672;23.230;2023-11-18T09:47:18;1.65;;;1.48;;
10987;SDS011;5547;42.672;23.230;2023-11-18T09:50:24;13.00;;;4.93;;
10987;SDS011;5547;42.672;23.230;2023-11-18T09:53:28;1.77;;;1.33;;
10987;SDS011;5547;42.672;23.230;2023-11-18T10:00:08;2.00;;;1.23;;
10987;SDS011;5547;42.672;23.230;2023-11-18T10:03:26;1.25;;;1.00;;
10987;SDS011;5547;42.672;23.230;2023-11-18T10:06:26;1.83;;;1.30;;
10987;SDS011;5547;42.672;23.230;2023-11-18T10:09:28;1.43;;;1.10;;
10987;SDS011;5547;42.672;23.230;2023-11-18T10:12:28;3.50;;;2.25;;
10987;SDS011;5547;42.672;23.230;2023-11-18T10:15:30;3.33;;;1.63;;
10987;SDS011;5547;42.672;23.230;2023-11-18T10:18:32;3.13;;;1.90;;
10987;SDS011;5547;42.672;23.230;2023-11-18T10:21:36;1.50;;;1.30;;
10987;SDS011;5547;42.672;23.230;2023-11-18T10:24:44;2.73;;;1.53;;
10987;SDS011;5547;42.672;23.230;2023-11-18T10:27:44;1.55;;;1.20;;
10987;SDS011;5547;42.672;23.230;2023-11-18T10:30:45;2.33;;;1.73;;
10987;SDS011;5547;42.672;23.230;2023-11-18T10:33:49;1.90;;;1.42;;
10987;SDS011;5547;42.672;23.230;2023-11-18T10:36:59;2.85;;;1.80;;
10987;SDS011;5547;42.672;23.230;2023-11-18T10:40:03;2.00;;;1.20;;
10987;SDS011;5547;42.672;23.230;2023-11-18T10:43:05;2.88;;;1.80;;
10987;SDS011;5547;42.672;23.230;2023-11-18T10:46:10;1.70;;;1.35;;
10987;SDS011;5547;42.672;23.230;2023-11-18T10:49:13;3.10;;;2.05;;
10987;SDS011;5547;42.672;23.230;2023-11-18T10:52:17;1.95;;;1.63;;
10987;SDS011;5547;42.672;23.230;2023-11-18T10:55:20;1.80;;;1.40;;
10987;SDS011;5547;42.672;23.230;2023-11-18T10:58:20;1.77;;;1.10;;
10987;SDS011;5547;42.672;23.230;2023-11-18T11:01:30;2.50;;;1.10;;
10987;SDS011;5547;42.672;23.230;2023-11-18T11:04:47;2.30;;;1.40;;
10987;SDS011;5547;42.672;23.230;2023-11-18T11:07:49;1.40;;;1.30;;
10987;SDS011;5547;42.672;23.230;2023-11-18T11:10:49;1.10;;;1.00;;
10987;SDS011;5547;42.672;23.230;2023-11-18T11:13:56;1.70;;;1.40;;
10987;SDS011;5547;42.672;23.230;2023-11-18T11:16:57;1.40;;;1.17;;
10987;SDS011;5547;42.672;23.230;2023-11-18T11:20:11;2.15;;;1.60;;
10987;SDS011;5547;42.672;23.230;2023-11-18T11:30:23;1.55;;;1.20;;
10987;SDS011;5547;42.672;23.230;2023-11-18T11:33:26;1.40;;;1.30;;
10987;SDS011;5547;42.672;23.230;2023-11-18T11:36:44;1.75;;;1.30;;
10987;SDS011;5547;42.672;23.230;2023-11-18T11:39:48;1.40;;;1.17;;
10987;SDS011;5547;42.672;23.230;2023-11-18T11:42:53;1.65;;;1.55;;
10987;SDS011;5547;42.672;23.230;2023-11-18T11:45:57;1.92;;;1.70;;
10987;SDS011;5547;42.672;23.230;2023-11-18T11:48:58;1.50;;;1.20;;
10987;SDS011;5547;42.672;23.230;2023-11-18T11:52:04;1.48;;;1.30;;
10987;SDS011;5547;42.672;23.230;2023-11-18T11:58:34;1.80;;;1.50;;
10987;SDS011;5547;42.672;23.230;2023-11-18T12:01:38;1.25;;;1.00;;
10987;SDS011;5547;42.672;23.230;2023-11-18T12:04:45;1.40;;;1.30;;
10987;SDS011;5547;42.672;23.230;2023-11-18T12:07:46;2.40;;;1.65;;
10987;SDS011;5547;42.672;23.230;2023-11-18T12:10:57;1.60;;;1.50;;
10987;SDS011;5547;42.672;23.230;2023-11-18T12:14:06;1.70;;;1.47;;
10987;SDS011;5547;42.672;23.230;2023-11-18T12:17:36;1.67;;;1.50;;
10987;SDS011;5547;42.672;23.230;2023-11-18T12:20:59;1.73;;;1.50;;
10987;SDS011;5547;42.672;23.230;2023-11-18T12:24:15;1.70;;;1.25;;
10987;SDS011;5547;42.672;23.230;2023-11-18T12:30:41;1.75;;;1.45;;
10987;SDS011;5547;42.672;23.230;2023-11-18T12:37:07;1.80;;;1.40;;
10987;SDS011;5547;42.672;23.230;2023-11-18T12:41:00;1.83;;;1.60;;
10987;SDS011;5547;42.672;23.230;2023-11-18T12:47:24;2.20;;;1.50;;
10987;SDS011;5547;42.672;23.230;2023-11-18T12:50:30;1.80;;;1.55;;
10987;SDS011;5547;42.672;23.230;2023-11-18T12:53:35;2.38;;;1.73;;
10987;SDS011;5547;42.672;23.230;2023-11-18T12:56:36;1.87;;;1.67;;
10987;SDS011;5547;42.672;23.230;2023-11-18T12:59:38;2.10;;;1.20;;
10987;SDS011;5547;42.672;23.230;2023-11-18T13:02:39;1.73;;;1.42;;
10987;SDS011;5547;42.672;23.230;2023-11-18T13:05:43;1.92;;;1.50;;
10987;SDS011;5547;42.672;23.230;2023-11-18T13:08:43;2.13;;;1.70;;
10987;SDS011;5547;42.672;23.230;2023-11-18T13:11:44;1.83;;;1.60;;
10987;SDS011;5547;42.672;23.230;2023-11-18T13:14:47;2.08;;;1.83;;
10987;SDS011;5547;42.672;23.230;2023-11-18T13:17:57;2.23;;;1.70;;
10987;SDS011;5547;42.672;23.230;2023-11-18T13:20:58;2.25;;;2.05;;
10987;SDS011;5547;42.672;23.230;2023-11-18T13:23:58;2.17;;;1.97;;
10987;SDS011;5547;42.672;23.230;2023-11-18T13:26:59;2.37;;;1.90;;
10987;SDS011;5547;42.672;23.230;2023-11-18T13:30:04;2.10;;;1.90;;
10987;SDS011;5547;42.672;23.230;2023-11-18T13:33:05;2.10;;;1.70;;
10987;SDS011;5547;42.672;23.230;2023-11-18T13:36:07;2.17;;;1.88;;
10987;SDS011;5547;42.672;23.230;2023-11-18T13:39:15;1.77;;;1.58;;
10987;SDS011;5547;42.672;23.230;2023-11-18T13:42:23;2.60;;;1.97;;
10987;SDS011;5547;42.672;23.230;2023-11-18T13:45:26;2.92;;;1.92;;
10987;SDS011;5547;42.672;23.230;2023-11-18T13:48:30;2.23;;;1.70;;
10987;SDS011;5547;42.672;23.230;2023-11-18T13:51:33;2.30;;;1.83;;
10987;SDS011;5547;42.672;23.230;2023-11-18T13:54:36;3.95;;;3.00;;
10987;SDS011;5547;42.672;23.230;2023-11-18T13:57:38;4.53;;;3.00;;
10987;SDS011;5547;42.672;23.230;2023-11-18T14:00:39;2.88;;;2.58;;
10987;SDS011;5547;42.672;23.230;2023-11-18T14:03:40;3.17;;;2.53;;
10987;SDS011;5547;42.672;23.230;2023-11-18T14:06:42;2.53;;;2.00;;
10987;SDS011;5547;42.672;23.230;2023-11-18T14:09:43;2.53;;;2.10;;
10987;SDS011;5547;42.672;23.230;2023-11-18T14:13:01;2.88;;;2.58;;
10987;SDS011;5547;42.672;23.230;2023-11-18T14:16:03;3.00;;;2.70;;
10987;SDS011;5547;42.672;23.230;2023-11-18T14:19:04;4.30;;;2.75;;
10987;SDS011;5547;42.672;23.230;2023-11-18T14:22:05;3.22;;;2.50;;
10987;SDS011;5547;42.672;23.230;2023-11-18T14:25:06;3.00;;;2.40;;
10987;SDS011;5547;42.672;23.230;2023-11-18T14:28:07;2.67;;;2.47;;
10987;SDS011;5547;42.672;23.230;2023-11-18T14:31:11;2.83;;;2.20;;
10987;SDS011;5547;42.672;23.230;2023-11-18T14:34:11;3.20;;;2.40;;
10987;SDS011;5547;42.672;23.230;2023-11-18T14:37:12;3.67;;;2.67;;
10987;SDS011;5547;42.672;23.230;2023-11-18T14:40:12;2.80;;;2.30;;
10987;SDS011;5547;42.672;23.230;2023-11-18T14:43:14;2.80;;;2.50;;
10987;SDS011;5547;42.672;23.230;2023-11-18T14:46:15;2.60;;;2.38;;
10987;SDS011;5547;42.672;23.230;2023-11-18T14:49:15;3.20;;;2.50;;
10987;SDS011;5547;42.672;23.230;2023-11-18T14:52:17;5.13;;;3.10;;
10987;SDS011;5547;42.672;23.230;2023-11-18T14:55:18;4.00;;;3.10;;
10987;SDS011;5547;42.672;23.230;2023-11-18T14:58:18;4.35;;;3.60;;
10987;SDS011;5547;42.672;23.230;2023-11-18T15:01:19;3.17;;;2.83;;
10987;SDS011;5547;42.672;23.230;2023-11-18T15:04:20;3.58;;;2.67;;
10987;SDS011;5547;42.672;23.230;2023-11-18T15:07:22;3.55;;;2.50;;
10987;SDS011;5547;42.672;23.230;2023-11-18T15:10:23;3.03;;;2.43;;
10987;SDS011;5547;42.672;23.230;2023-11-18T15:13:24;3.83;;;3.03;;
10987;SDS011;5547;42.672;23.230;2023-11-18T15:16:25;3.70;;;3.07;;
10987;SDS011;5547;42.672;23.230;2023-11-18T15:19:25;3.40;;;2.93;;
10987;SDS011;5547;42.672;23.230;2023-11-18T15:22:27;3.47;;;3.17;;
10987;SDS011;5547;42.672;23.230;2023-11-18T15:25:27;3.83;;;2.60;;
10987;SDS011;5547;42.672;23.230;2023-11-18T15:28:28;3.00;;;2.63;;
10987;SDS011;5547;42.672;23.230;2023-11-18T15:31:29;3.10;;;2.80;;
10987;SDS011;5547;42.672;23.230;2023-11-18T15:34:30;2.72;;;2.47;;
10987;SDS011;5547;42.672;23.230;2023-11-18T15:37:32;5.28;;;3.63;;
10987;SDS011;5547;42.672;23.230;2023-11-18T15:40:36;3.60;;;2.67;;
10987;SDS011;5547;42.672;23.230;2023-11-18T15:43:37;4.27;;;3.30;;
10987;SDS011;5547;42.672;23.230;2023-11-18T15:46:37;3.77;;;2.80;;
10987;SDS011;5547;42.672;23.230;2023-11-18T15:49:37;4.60;;;2.90;;
10987;SDS011;5547;42.672;23.230;2023-11-18T15:52:39;3.88;;;3.10;;
10987;SDS011;5547;42.672;23.230;2023-11-18T15:55:39;4.80;;;3.88;;
10987;SDS011;5547;42.672;23.230;2023-11-18T15:58:41;5.40;;;4.38;;
10987;SDS011;5547;42.672;23.230;2023-11-18T16:01:42;4.07;;;3.10;;
10987;SDS011;5547;42.672;23.230;2023-11-18T16:04:42;6.10;;;4.03;;
10987;SDS011;5547;42.672;23.230;2023-11-18T16:07:46;3.57;;;2.77;;
10987;SDS011;5547;42.672;23.230;2023-11-18T16:10:47;4.10;;;3.33;;
10987;SDS011;5547;42.672;23.230;2023-11-18T16:13:48;4.10;;;3.67;;
10987;SDS011;5547;42.672;23.230;2023-11-18T16:16:48;3.83;;;3.00;;
10987;SDS011;5547;42.672;23.230;2023-11-18T16:19:49;2.70;;;2.20;;
10987;SDS011;5547;42.672;23.230;2023-11-18T16:22:50;3.90;;;3.08;;
10987;SDS011;5547;42.672;23.230;2023-11-18T16:25:51;3.33;;;2.70;;
10987;SDS011;5547;42.672;23.230;2023-11-18T16:28:51;3.90;;;2.87;;
10987;SDS011;5547;42.672;23.230;2023-11-18T16:31:52;3.08;;;2.78;;
10987;SDS011;5547;42.672;23.230;2023-11-18T16:34:52;2.60;;;2.40;;
10987;SDS011;5547;42.672;23.230;2023-11-18T16:37:53;3.75;;;2.92;;
10987;SDS011;5547;42.672;23.230;2023-11-18T16:40:54;5.77;;;4.20;;
10987;SDS011;5547;42.672;23.230;2023-11-18T16:43:55;3.25;;;2.47;;
10987;SDS011;5547;42.672;23.230;2023-11-18T16:46:56;3.57;;;2.50;;
10987;SDS011;5547;42.672;23.230;2023-11-18T16:49:56;4.03;;;3.00;;
10987;SDS011;5547;42.672;23.230;2023-11-18T16:52:57;4.55;;;3.42;;
10987;SDS011;5547;42.672;23.230;2023-11-18T16:55:59;4.63;;;3.65;;
10987;SDS011;5547;42.672;23.230;2023-11-18T16:58:59;3.53;;;3.20;;
10987;SDS011;5547;42.672;23.230;2023-11-18T17:02:00;3.10;;;2.77;;
10987;SDS011;5547;42.672;23.230;2023-11-18T17:05:01;3.30;;;2.70;;
10987;SDS011;5547;42.672;23.230;2023-11-18T17:08:02;3.63;;;2.78;;
10987;SDS011;5547;42.672;23.230;2023-11-18T17:11:05;4.20;;;2.93;;
10987;SDS011;5547;42.672;23.230;2023-11-18T17:14:05;3.08;;;2.50;;
10987;SDS011;5547;42.672;23.230;2023-11-18T17:17:07;3.13;;;2.63;;
10987;SDS011;5547;42.672;23.230;2023-11-18T17:20:09;3.67;;;3.10;;
10987;SDS011;5547;42.672;23.230;2023-11-18T17:23:11;3.53;;;2.60;;
10987;SDS011;5547;42.672;23.230;2023-11-18T17:26:11;3.43;;;2.93;;
10987;SDS011;5547;42.672;23.230;2023-11-18T17:29:11;6.17;;;4.10;;
10987;SDS011;5547;42.672;23.230;2023-11-18T17:32:15;3.60;;;3.17;;
10987;SDS011;5547;42.672;23.230;2023-11-18T17:35:15;3.75;;;2.88;;
10987;SDS011;5547;42.672;23.230;2023-11-18T17:38:18;3.83;;;3.03;;
10987;SDS011;5547;42.672;23.230;2023-11-18T17:41:18;3.37;;;2.70;;
10987;SDS011;5547;42.672;23.230;2023-11-18T17:44:21;2.90;;;2.47;;
10987;SDS011;5547;42.672;23.230;2023-11-18T17:47:22;2.97;;;2.20;;
10987;SDS011;5547;42.672;23.230;2023-11-18T17:50:25;3.00;;;2.70;;
10987;SDS011;5547;42.672;23.230;2023-11-18T17:53:26;2.95;;;2.65;;
10987;SDS011;5547;42.672;23.230;2023-11-18T17:56:27;3.03;;;2.50;;
10987;SDS011;5547;42.672;23.230;2023-11-18T17:59:28;2.72;;;2.30;;
10987;SDS011;5547;42.672;23.230;2023-11-18T18:02:29;3.50;;;2.40;;
10987;SDS011;5547;42.672;23.230;2023-11-18T18:05:29;2.93;;;2.60;;
10987;SDS011;5547;42.672;23.230;2023-11-18T18:08:30;4.40;;;2.70;;
10987;SDS011;5547;42.672;23.230;2023-11-18T18:11:32;5.07;;;3.30;;
10987;SDS011;5547;42.672;23.230;2023-11-18T18:14:33;4.00;;;2.80;;
10987;SDS011;5547;42.672;23.230;2023-11-18T18:17:36;3.80;;;3.10;;
10987;SDS011;5547;42.672;23.230;2023-11-18T18:20:37;2.60;;;2.40;;
10987;SDS011;5547;42.672;23.230;2023-11-18T18:23:38;3.00;;;2.20;;
10987;SDS011;5547;42.672;23.230;2023-11-18T18:26:38;2.27;;;2.00;;
10987;SDS011;5547;42.672;23.230;2023-11-18T18:29:39;2.72;;;2.30;;
10987;SDS011;5547;42.672;23.230;2023-11-18T18:32:40;2.80;;;2.00;;
10987;SDS011;5547;42.672;23.230;2023-11-18T18:35:40;2.90;;;2.50;;
10987;SDS011;5547;42.672;23.230;2023-11-18T18:38:41;2.83;;;2.28;;
10987;SDS011;5547;42.672;23.230;2023-11-18T18:41:41;3.30;;;2.20;;
10987;SDS011;5547;42.672;23.230;2023-11-18T18:44:42;3.77;;;2.90;;